Pagrindinis puslapis
METAR-TAF:

METAR-TAF

Oro uostai :

Palembangas, Indonezija

platuma: 02-54S, ilguma: 104-42E, Aukštis: 10 m

Dabartinis oras

Ataskaita buvo paskelbta 43 minutes, ne 11:00 UTC
Vėjas 7 kt iš Rytų/Pietryčių
Temperatūra 28°C
Drėgmė 79%
Slėgis 1008 hPa
Matomumas: 7000 m
Mažai debesys ne aukštis 1000 ft

METAR: WIPP 041100Z 12007KT 7000 FEW010 28/24 Q1008 NOSIG

Laikas: 18:43 (11:43 UTC)

Prognozė

Ataskaita buvo paskelbta 43 minutes, ne 11:00 UTC
Prognozė galioja nuo 04 metu 12 UTC su 05 metu 12 UTC
Vėjas 6 kt iš Pietų
Matomumas 10 km arba daugiau
Išsisklaidę debesys ne aukštis 1000 ft
Laikinai
nuo 04 metu 21 UTC su 04 metu 24 UTC
Matomumas: 4000 m
rūkana
Laikinai
nuo 04 metu 07 UTC su 04 metu 11 UTC
Matomumas: 4000 m
Mažai debesys ne aukštis 1000 ft, Liūtiniai kamuoliniai debesys.
Su prošvaistėmis ne aukštis 1000 ft
lietus

TAF: WIPP 041100Z 0412/0512 19006KT 9999 SCT010 TEMPO 0421/0424 4000 BR TEMPO 0407/0411 4000 RA FEW010CB BKN010

Orai ataskaitas ir orų prognozės (METAR, TAF).

turimą stotys yra geltonos ir raudonos taškus žemėlapyje.

Perkelti pele per norėdami pamatyti stoties vardą.

Tada spustelėkite, norėdami matyti oro stebėjimo ir prognozės.

Norėdami pakeisti žemėlapį: spustelėkite ant žalios mygtukų su juodo kryžiaus žemyn,; žalią mygtuką su brūkšneliu, jei norite nutolinti; arba žalių rodyklių gretimoms žemėlapius.


METAR-TAF: